Terminal Aerodrome Forecast
Issued by NWS

Home | Current Version | Previous Version | Text Only | Print | Product List | Glossary On
Versions: 1 2 3 4 5 6 7 8 9 10 11 12 13 14 15 16 17 18 19
719
FTUS44 KLZK 300129 AAA
TAFHRO
TAF AMD
KHRO 300129Z 3001/3024 11009KT 4SM -TSRA BR BKN002CB OVC025
      TEMPO 3001/3004 1SM -TSRA BR BKN002 OVC008CB
     FM300400 12009KT 4SM -TSRA BR BKN005CB OVC025
     FM300800 15005KT 2SM -TSRA BR BKN005CB OVC025
     FM301500 19010KT 6SM BR VCSH BKN008 OVC015=

USA.gov is the U.S. government's official web portal to all federal, state and local government web resources and services.